createdAt,value
2023-02-12T00:02:20.764Z,15.54
2023-02-12T00:04:47.975Z,15.53
2023-02-12T00:07:14.546Z,15.54
2023-02-12T00:09:41.179Z,15.54
2023-02-12T00:12:07.835Z,15.54
2023-02-12T00:14:34.853Z,15.54
2023-02-12T00:17:01.453Z,15.55
2023-02-12T00:19:28.008Z,15.54
2023-02-12T00:21:54.613Z,15.56
2023-02-12T00:24:21.162Z,15.52
2023-02-12T00:26:48.472Z,15.50
2023-02-12T00:29:15.033Z,15.53
2023-02-12T00:31:42.381Z,15.54
2023-02-12T00:34:10.224Z,15.50
2023-02-12T00:36:36.809Z,15.53
2023-02-12T00:39:03.956Z,15.47
2023-02-12T00:41:30.597Z,15.56
2023-02-12T00:43:57.468Z,15.49
2023-02-12T00:46:24.139Z,15.51
2023-02-12T00:48:50.971Z,15.53
2023-02-12T00:51:17.538Z,15.46
2023-02-12T00:53:44.162Z,15.48
2023-02-12T00:56:10.707Z,15.56
2023-02-12T00:58:37.305Z,15.54
2023-02-12T01:01:04.167Z,15.54
2023-02-12T01:03:30.789Z,15.54
2023-02-12T01:05:57.881Z,15.51
2023-02-12T01:08:24.645Z,15.53
2023-02-12T01:10:57.548Z,15.53
2023-02-12T01:13:25.616Z,15.50
2023-02-12T01:16:09.017Z,15.49
2023-02-12T01:18:37.035Z,15.49
2023-02-12T01:21:16.164Z,15.55
2023-02-12T01:23:43.321Z,15.55
2023-02-12T01:26:11.622Z,15.50
2023-02-12T01:28:42.661Z,15.48
2023-02-12T01:31:21.234Z,15.46
2023-02-12T01:33:49.196Z,15.52
2023-02-12T01:36:15.970Z,15.48
2023-02-12T01:38:42.527Z,15.49
2023-02-12T01:41:10.178Z,15.47
2023-02-12T01:43:37.475Z,15.53
2023-02-12T01:46:05.041Z,15.53
2023-02-12T01:48:36.765Z,15.50
2023-02-12T01:51:04.159Z,15.48
2023-02-12T01:53:36.174Z,15.47
2023-02-12T01:56:03.539Z,15.51
2023-02-12T01:58:37.781Z,15.51
2023-02-12T02:01:06.865Z,15.54
2023-02-12T02:03:34.496Z,15.47
2023-02-12T02:06:06.922Z,15.49
2023-02-12T02:08:34.358Z,15.53
2023-02-12T02:11:00.916Z,15.44
2023-02-12T02:13:46.251Z,15.44
2023-02-12T02:16:21.577Z,15.50
2023-02-12T02:18:53.803Z,15.48
2023-02-12T02:21:36.498Z,15.53
2023-02-12T02:24:15.082Z,15.48
2023-02-12T02:26:41.566Z,15.51
2023-02-12T02:29:19.948Z,15.47
2023-02-12T02:31:49.510Z,15.50
2023-02-12T02:34:28.238Z,15.53
2023-02-12T02:37:01.355Z,15.45
2023-02-12T02:39:38.973Z,15.42
2023-02-12T02:42:10.500Z,15.43
2023-02-12T02:44:47.014Z,15.46
2023-02-12T02:47:15.112Z,15.40
2023-02-12T02:49:46.557Z,15.42
2023-02-12T02:52:17.834Z,15.40
2023-02-12T02:54:50.728Z,15.46
2023-02-12T02:57:22.943Z,15.43
2023-02-12T02:59:54.414Z,15.43
2023-02-12T03:02:33.986Z,15.42
2023-02-12T03:05:26.575Z,15.44
2023-02-12T03:07:58.104Z,15.44
2023-02-12T03:10:28.174Z,15.45
2023-02-12T03:13:04.875Z,15.44
2023-02-12T03:15:47.471Z,15.40
2023-02-12T03:18:22.018Z,15.45
2023-02-12T03:20:53.278Z,15.41
2023-02-12T03:23:24.801Z,15.44
2023-02-12T03:25:57.076Z,15.43
2023-02-12T03:28:29.224Z,15.40
2023-02-12T03:31:11.085Z,15.40
2023-02-12T03:33:40.377Z,15.40
2023-02-12T03:36:14.774Z,15.48
2023-02-12T03:38:53.931Z,15.45
2023-02-12T03:41:35.758Z,15.38
2023-02-12T03:44:47.358Z,15.39
2023-02-12T03:47:27.018Z,15.39
2023-02-12T03:50:01.330Z,15.40
2023-02-12T03:52:29.308Z,15.33
2023-02-12T03:54:55.878Z,15.32
2023-02-12T03:57:30.530Z,15.33
2023-02-12T04:00:04.800Z,15.33
2023-02-12T04:02:31.644Z,15.39
2023-02-12T04:04:58.206Z,15.36
2023-02-12T04:07:24.802Z,15.38
2023-02-12T04:09:51.410Z,15.38
2023-02-12T04:12:28.991Z,15.37
2023-02-12T04:14:55.486Z,15.39
2023-02-12T04:17:25.176Z,15.35
2023-02-12T04:20:04.258Z,15.35
2023-02-12T04:22:42.762Z,15.37
2023-02-12T04:25:24.411Z,15.35
2023-02-12T04:28:06.005Z,15.38
2023-02-12T04:30:36.523Z,15.35
2023-02-12T04:33:04.850Z,15.36
2023-02-12T04:35:49.594Z,15.37
2023-02-12T04:38:19.063Z,15.36
2023-02-12T04:40:45.697Z,15.35
2023-02-12T04:43:12.368Z,15.40
2023-02-12T04:45:39.141Z,15.34
2023-02-12T04:48:05.914Z,15.35
2023-02-12T04:50:41.929Z,15.32
2023-02-12T04:53:10.386Z,15.32
2023-02-12T04:55:37.240Z,15.30
2023-02-12T04:58:03.975Z,15.30
2023-02-12T05:00:30.579Z,15.27
2023-02-12T05:02:57.144Z,15.37
2023-02-12T05:05:24.189Z,15.33
2023-02-12T05:07:50.782Z,15.35
2023-02-12T05:10:17.347Z,15.33
2023-02-12T05:12:43.945Z,15.30
2023-02-12T05:15:11.040Z,15.33
2023-02-12T05:17:38.235Z,15.30
2023-02-12T05:20:06.201Z,15.26
2023-02-12T05:22:32.761Z,15.27
2023-02-12T05:24:59.376Z,15.24
2023-02-12T05:27:25.929Z,15.23
2023-02-12T05:29:52.498Z,15.21
2023-02-12T05:32:19.086Z,15.25
2023-02-12T05:34:45.673Z,15.27
2023-02-12T05:37:12.216Z,15.23
2023-02-12T05:39:38.843Z,15.33
2023-02-12T05:42:05.424Z,15.23
2023-02-12T05:44:32.116Z,15.27
2023-02-12T05:46:58.654Z,15.21
2023-02-12T05:49:25.231Z,15.26
2023-02-12T05:51:51.827Z,15.24
2023-02-12T05:54:18.469Z,15.24
2023-02-12T05:56:47.185Z,15.22
2023-02-12T05:59:19.458Z,15.21
2023-02-12T06:01:47.376Z,15.23
2023-02-12T06:04:16.702Z,15.19
2023-02-12T06:06:43.387Z,15.19
2023-02-12T06:09:11.096Z,15.16
2023-02-12T06:11:37.914Z,15.21
2023-02-12T06:14:05.920Z,15.18
2023-02-12T06:16:33.439Z,15.15
2023-02-12T06:19:01.795Z,15.16
2023-02-12T06:21:28.744Z,15.20
2023-02-12T06:23:55.681Z,15.16
2023-02-12T06:26:23.547Z,15.19
2023-02-12T06:28:50.994Z,15.24
2023-02-12T06:31:18.589Z,15.18
2023-02-12T06:33:45.199Z,15.23
2023-02-12T06:36:11.746Z,15.23
2023-02-12T06:38:38.305Z,15.16
2023-02-12T06:41:04.983Z,15.15
2023-02-12T06:43:31.581Z,15.16
2023-02-12T06:46:01.192Z,15.20
2023-02-12T06:48:27.943Z,15.22
2023-02-12T06:50:54.490Z,15.18
2023-02-12T06:53:21.065Z,15.21
2023-02-12T06:55:47.619Z,15.22
2023-02-12T06:58:14.190Z,15.17
2023-02-12T07:00:40.815Z,15.13
2023-02-12T07:03:07.398Z,15.17
2023-02-12T07:05:37.852Z,15.14
2023-02-12T07:08:04.446Z,15.11
2023-02-12T07:10:31.218Z,15.14
2023-02-12T07:12:57.871Z,15.17
2023-02-12T07:15:24.461Z,15.18
2023-02-12T07:17:51.024Z,15.36
2023-02-12T07:20:17.727Z,15.50
2023-02-12T07:22:44.732Z,15.59
2023-02-12T07:25:11.281Z,15.79
2023-02-12T07:27:38.145Z,15.99
2023-02-12T07:30:06.066Z,16.27
2023-02-12T07:32:33.901Z,16.46
2023-02-12T07:35:00.478Z,16.59
2023-02-12T07:37:27.037Z,16.75
2023-02-12T07:39:53.640Z,16.88
2023-02-12T07:42:20.226Z,16.92
2023-02-12T07:44:46.782Z,16.98
2023-02-12T07:47:13.319Z,17.00
2023-02-12T07:49:39.890Z,16.96
2023-02-12T07:52:06.432Z,16.97
2023-02-12T07:54:33.114Z,16.92
2023-02-12T07:57:00.687Z,16.88
2023-02-12T07:59:27.309Z,16.82
2023-02-12T08:01:54.265Z,16.80
2023-02-12T08:04:24.068Z,16.76
2023-02-12T08:06:53.978Z,16.72
2023-02-12T08:09:26.113Z,16.70
2023-02-12T08:11:53.415Z,16.67
2023-02-12T08:14:21.232Z,16.64
2023-02-12T08:16:48.878Z,16.61
2023-02-12T08:19:20.227Z,16.60
2023-02-12T08:21:53.113Z,16.59
2023-02-12T08:24:19.959Z,16.53
2023-02-12T08:26:46.543Z,16.52
2023-02-12T08:29:15.587Z,16.54
2023-02-12T08:31:44.638Z,16.48
2023-02-12T08:34:22.229Z,16.50
2023-02-12T08:36:50.214Z,16.45
2023-02-12T08:39:17.430Z,16.45
2023-02-12T08:41:44.521Z,16.44
2023-02-12T08:44:11.990Z,16.33
2023-02-12T08:46:47.369Z,16.44
2023-02-12T08:49:28.411Z,16.39
2023-02-12T08:51:56.234Z,16.37
2023-02-12T08:54:25.772Z,16.37
2023-02-12T08:57:00.516Z,16.36
2023-02-12T08:59:27.237Z,16.38
2023-02-12T09:01:54.377Z,16.35
2023-02-12T09:04:26.040Z,16.26
2023-02-12T09:06:53.124Z,16.37
2023-02-12T09:09:19.972Z,16.32
2023-02-12T09:11:46.677Z,16.33
2023-02-12T09:14:15.658Z,16.28
2023-02-12T09:16:43.531Z,16.19
2023-02-12T09:19:12.563Z,16.20
2023-02-12T09:21:39.153Z,16.17
2023-02-12T09:24:06.104Z,16.23
2023-02-12T09:26:32.694Z,16.27
2023-02-12T09:28:59.299Z,16.10
2023-02-12T09:31:28.043Z,16.11
2023-02-12T09:33:57.876Z,16.11
2023-02-12T09:36:24.519Z,16.19
2023-02-12T09:38:51.327Z,16.16
2023-02-12T09:41:34.720Z,16.19
2023-02-12T09:44:04.799Z,16.10
2023-02-12T09:46:34.336Z,16.14
2023-02-12T09:49:11.350Z,15.94
2023-02-12T09:51:39.558Z,15.92
2023-02-12T09:54:10.395Z,15.88
2023-02-12T09:56:38.519Z,15.88
2023-02-12T09:59:07.554Z,15.86
2023-02-12T10:01:34.740Z,15.80
2023-02-12T10:04:01.720Z,15.77
2023-02-12T10:06:31.412Z,15.79
2023-02-12T10:09:20.484Z,15.90
2023-02-12T10:12:13.282Z,15.90
2023-02-12T10:14:57.821Z,15.85
2023-02-12T10:17:45.254Z,15.78
2023-02-12T10:20:30.347Z,15.77
2023-02-12T10:23:30.628Z,15.78
2023-02-12T10:26:00.150Z,15.70
2023-02-12T10:28:31.979Z,15.80
2023-02-12T10:31:23.389Z,15.89
2023-02-12T10:33:51.093Z,16.00
2023-02-12T10:36:43.022Z,16.05
2023-02-12T10:39:24.451Z,16.11
2023-02-12T10:42:06.608Z,16.06
2023-02-12T10:44:33.167Z,16.03
2023-02-12T10:46:59.768Z,16.08
2023-02-12T10:49:26.668Z,16.03
2023-02-12T10:52:12.016Z,16.01
2023-02-12T10:54:43.741Z,16.09
2023-02-12T10:57:30.875Z,16.06
2023-02-12T11:00:15.942Z,16.09
2023-02-12T11:03:00.295Z,16.06
2023-02-12T11:05:30.024Z,15.96
2023-02-12T11:07:59.448Z,16.02
2023-02-12T11:10:46.183Z,16.01
2023-02-12T11:13:28.563Z,15.92
2023-02-12T11:15:55.488Z,15.84
2023-02-12T11:18:26.171Z,15.98
2023-02-12T11:20:55.053Z,16.02
2023-02-12T11:23:27.315Z,15.89
2023-02-12T11:26:07.822Z,15.79
2023-02-12T11:28:36.697Z,15.83
2023-02-12T11:31:22.403Z,15.71
2023-02-12T11:34:12.214Z,15.84
2023-02-12T11:36:43.948Z,15.68
2023-02-12T11:39:28.398Z,15.72
2023-02-12T11:42:14.840Z,15.86
2023-02-12T11:44:44.070Z,15.93
2023-02-12T11:47:22.368Z,15.99
2023-02-12T11:49:54.481Z,16.01
2023-02-12T11:52:29.169Z,16.03
2023-02-12T11:54:58.570Z,16.14
2023-02-12T11:57:43.348Z,16.23
2023-02-12T12:00:22.920Z,16.32
2023-02-12T12:03:14.218Z,16.31
2023-02-12T12:05:46.068Z,16.19
2023-02-12T12:08:24.097Z,16.24
2023-02-12T12:10:57.283Z,16.28
2023-02-12T12:13:28.221Z,16.25
2023-02-12T12:16:23.442Z,16.25
2023-02-12T12:19:15.694Z,16.21
2023-02-12T12:21:57.200Z,16.34
2023-02-12T12:24:26.894Z,16.22
2023-02-12T12:27:04.706Z,16.21
2023-02-12T12:29:55.070Z,16.21
2023-02-12T12:32:23.093Z,16.16
2023-02-12T12:34:49.655Z,16.13
2023-02-12T12:37:18.010Z,16.11
2023-02-12T12:40:00.112Z,16.12
2023-02-12T12:42:29.505Z,16.01
2023-02-12T12:44:56.038Z,15.98
2023-02-12T12:47:45.249Z,16.05
2023-02-12T12:50:40.850Z,16.01
2023-02-12T12:53:24.518Z,16.09
2023-02-12T12:56:00.381Z,16.10
2023-02-12T12:58:55.585Z,16.15
2023-02-12T13:01:54.002Z,16.13
2023-02-12T13:04:23.292Z,16.14
2023-02-12T13:07:03.802Z,16.14
2023-02-12T13:09:41.206Z,16.10
2023-02-12T13:12:25.995Z,16.02
2023-02-12T13:15:23.406Z,16.09
2023-02-12T13:18:10.028Z,16.13
2023-02-12T13:21:01.526Z,16.06
2023-02-12T13:23:42.916Z,16.06
2023-02-12T13:26:33.609Z,16.09
2023-02-12T13:29:11.632Z,16.04
2023-02-12T13:31:45.680Z,16.08
2023-02-12T13:34:15.060Z,16.07
2023-02-12T13:36:41.885Z,16.10
2023-02-12T13:39:16.846Z,16.15
2023-02-12T13:41:48.487Z,16.06
2023-02-12T13:44:26.372Z,16.10
2023-02-12T13:47:29.575Z,16.06
2023-02-12T13:50:34.624Z,16.13
2023-02-12T13:53:37.182Z,16.06
2023-02-12T13:56:07.943Z,16.08
2023-02-12T13:58:40.411Z,16.13
2023-02-12T14:01:10.941Z,16.09
2023-02-12T14:03:38.590Z,16.05
2023-02-12T14:06:11.267Z,16.07
2023-02-12T14:08:42.253Z,16.08
2023-02-12T14:11:13.763Z,16.08
2023-02-12T14:14:00.522Z,16.06
2023-02-12T14:16:29.844Z,16.04
2023-02-12T14:19:41.199Z,16.04
2023-02-12T14:22:26.210Z,16.00
2023-02-12T14:24:54.832Z,16.03
2023-02-12T14:27:36.357Z,16.04
2023-02-12T14:30:09.108Z,16.07
2023-02-12T14:32:55.201Z,16.05
2023-02-12T14:35:41.970Z,16.05
2023-02-12T14:38:11.514Z,16.01
2023-02-12T14:40:47.157Z,16.02
2023-02-12T14:43:32.622Z,16.00
2023-02-12T14:46:23.973Z,16.02
2023-02-12T14:48:55.836Z,15.98
2023-02-12T14:51:28.330Z,15.98
2023-02-12T14:53:55.768Z,16.01
2023-02-12T14:56:23.261Z,16.01
2023-02-12T14:58:51.144Z,15.98
2023-02-12T15:01:18.191Z,15.98
2023-02-12T15:03:49.666Z,16.00
2023-02-12T15:06:27.728Z,16.01
2023-02-12T15:09:00.279Z,16.00
2023-02-12T15:11:32.893Z,16.03
2023-02-12T15:14:08.725Z,16.03
2023-02-12T15:16:54.779Z,16.03
2023-02-12T15:19:30.706Z,15.96
2023-02-12T15:21:57.347Z,16.02
2023-02-12T15:24:25.735Z,16.16
2023-02-12T15:26:57.910Z,16.22
2023-02-12T15:29:30.465Z,16.31
2023-02-12T15:31:59.187Z,16.32
2023-02-12T15:34:29.097Z,16.45
2023-02-12T15:36:58.384Z,16.45
2023-02-12T15:39:25.212Z,16.50
2023-02-12T15:41:52.280Z,16.54
2023-02-12T15:44:21.764Z,16.60
2023-02-12T15:47:14.509Z,16.68
2023-02-12T15:49:42.761Z,16.70
2023-02-12T15:52:21.502Z,16.69
2023-02-12T15:54:48.797Z,16.67
2023-02-12T15:57:22.301Z,16.70
2023-02-12T15:59:52.748Z,16.70
2023-02-12T16:02:28.856Z,16.71
2023-02-12T16:04:57.077Z,16.69
2023-02-12T16:07:24.860Z,16.75
2023-02-12T16:09:53.701Z,16.69
2023-02-12T16:12:22.550Z,16.72
2023-02-12T16:14:51.859Z,16.68
2023-02-12T16:17:34.954Z,16.68
2023-02-12T16:20:01.552Z,16.68
2023-02-12T16:22:38.231Z,16.66
2023-02-12T16:25:16.033Z,16.66
2023-02-12T16:28:08.288Z,16.64
2023-02-12T16:30:38.886Z,16.66
2023-02-12T16:33:32.444Z,16.60
2023-02-12T16:36:03.654Z,16.63
2023-02-12T16:38:48.105Z,16.56
2023-02-12T16:41:20.596Z,16.65
2023-02-12T16:44:11.791Z,16.65
2023-02-12T16:46:50.826Z,16.64
2023-02-12T16:49:23.014Z,16.59
2023-02-12T16:51:50.580Z,16.59
2023-02-12T16:54:30.662Z,16.66
2023-02-12T16:56:57.738Z,16.62
2023-02-12T16:59:24.548Z,16.62
2023-02-12T17:02:03.867Z,16.59
2023-02-12T17:04:31.123Z,16.57
2023-02-12T17:06:58.114Z,16.59
2023-02-12T17:09:24.756Z,16.53
2023-02-12T17:11:51.387Z,16.55
2023-02-12T17:14:19.884Z,16.44
2023-02-12T17:16:47.128Z,16.46
2023-02-12T17:19:13.733Z,16.48
2023-02-12T17:21:45.232Z,16.50
2023-02-12T17:24:31.605Z,16.46
2023-02-12T17:26:58.260Z,16.48
2023-02-12T17:29:25.515Z,16.49
2023-02-12T17:31:53.926Z,16.42
2023-02-12T17:34:20.565Z,16.41
2023-02-12T17:36:47.155Z,16.35
2023-02-12T17:39:14.719Z,16.36
2023-02-12T17:41:41.449Z,16.36
2023-02-12T17:44:08.241Z,16.31
2023-02-12T17:46:34.908Z,16.28
2023-02-12T17:49:01.513Z,16.35
2023-02-12T17:51:28.286Z,16.37
2023-02-12T17:53:55.006Z,16.27
2023-02-12T17:56:22.729Z,16.30
2023-02-12T17:58:49.749Z,16.23
2023-02-12T18:01:18.828Z,16.22
2023-02-12T18:03:45.788Z,16.25
2023-02-12T18:06:16.254Z,16.23
2023-02-12T18:08:43.389Z,16.25
2023-02-12T18:11:11.416Z,16.36
2023-02-12T18:13:39.123Z,16.27
2023-02-12T18:16:09.712Z,16.23
2023-02-12T18:18:36.856Z,16.31
2023-02-12T18:21:09.085Z,16.25
2023-02-12T18:23:35.896Z,16.24
2023-02-12T18:26:06.197Z,16.21
2023-02-12T18:28:32.838Z,16.04
2023-02-12T18:31:00.089Z,16.05
2023-02-12T18:33:27.034Z,16.23
2023-02-12T18:36:01.019Z,16.21
2023-02-12T18:38:27.862Z,16.35
2023-02-12T18:40:54.617Z,16.22
2023-02-12T18:43:22.320Z,16.19
2023-02-12T18:45:49.864Z,16.11
2023-02-12T18:48:16.440Z,16.07
2023-02-12T18:50:43.025Z,16.27
2023-02-12T18:53:09.687Z,16.37
2023-02-12T18:55:39.611Z,16.37
2023-02-12T18:58:06.207Z,16.37
2023-02-12T19:00:32.898Z,16.35
2023-02-12T19:02:59.444Z,16.30
2023-02-12T19:05:26.439Z,16.35
2023-02-12T19:07:53.158Z,16.31
2023-02-12T19:10:19.790Z,16.36
2023-02-12T19:12:46.510Z,16.37
2023-02-12T19:15:13.078Z,16.39
2023-02-12T19:17:39.658Z,16.42
2023-02-12T19:20:06.802Z,16.41
2023-02-12T19:22:33.456Z,16.39
2023-02-12T19:25:00.044Z,16.36
2023-02-12T19:27:26.642Z,16.33
2023-02-12T19:29:53.235Z,16.44
2023-02-12T19:32:19.841Z,16.37
2023-02-12T19:34:46.398Z,16.30
2023-02-12T19:37:13.907Z,16.28
2023-02-12T19:39:40.958Z,16.34
2023-02-12T19:42:07.514Z,16.30
2023-02-12T19:44:34.162Z,16.31
2023-02-12T19:47:00.806Z,16.33
2023-02-12T19:49:28.706Z,16.30
2023-02-12T19:51:55.321Z,16.34
2023-02-12T19:54:23.404Z,16.30
2023-02-12T19:56:52.792Z,16.33
2023-02-12T19:59:20.934Z,16.35
2023-02-12T20:01:48.397Z,16.32
2023-02-12T20:04:17.335Z,16.31
2023-02-12T20:06:45.818Z,16.36
2023-02-12T20:09:13.417Z,16.38
2023-02-12T20:11:40.061Z,16.35
2023-02-12T20:14:08.934Z,16.37
2023-02-12T20:16:38.198Z,16.28
2023-02-12T20:19:10.991Z,16.23
2023-02-12T20:21:38.331Z,16.20
2023-02-12T20:24:05.351Z,16.30
2023-02-12T20:26:33.242Z,16.12
2023-02-12T20:29:02.304Z,16.23
2023-02-12T20:31:33.175Z,16.15
2023-02-12T20:34:02.893Z,16.17
2023-02-12T20:36:34.520Z,16.09
2023-02-12T20:39:01.527Z,16.01
2023-02-12T20:41:28.725Z,15.95
2023-02-12T20:43:56.042Z,15.94
2023-02-12T20:46:23.970Z,15.89
2023-02-12T20:48:50.919Z,16.07
2023-02-12T20:51:19.467Z,15.99
2023-02-12T20:53:46.671Z,16.02
2023-02-12T20:56:24.614Z,15.99
2023-02-12T20:58:51.529Z,15.99
2023-02-12T21:01:23.633Z,16.04
2023-02-12T21:03:52.289Z,16.02
2023-02-12T21:06:19.701Z,15.96
2023-02-12T21:08:46.560Z,15.96
2023-02-12T21:11:16.079Z,15.94
2023-02-12T21:13:53.690Z,15.94
2023-02-12T21:16:31.297Z,15.90
2023-02-12T21:18:57.935Z,15.90
2023-02-12T21:21:27.051Z,15.88
2023-02-12T21:23:56.665Z,15.88
2023-02-12T21:26:26.193Z,15.89
2023-02-12T21:28:53.596Z,15.95
2023-02-12T21:31:24.370Z,15.90
2023-02-12T21:33:52.738Z,15.90
2023-02-12T21:36:28.074Z,15.94
2023-02-12T21:38:55.346Z,15.96
2023-02-12T21:41:24.452Z,15.94
2023-02-12T21:43:54.100Z,15.95
2023-02-12T21:46:22.486Z,15.91
2023-02-12T21:48:49.996Z,15.90
2023-02-12T21:51:31.919Z,15.83
2023-02-12T21:54:00.842Z,15.92
2023-02-12T21:56:28.207Z,15.90
2023-02-12T21:58:55.512Z,15.90
2023-02-12T22:01:24.600Z,15.88
2023-02-12T22:03:52.074Z,15.93
2023-02-12T22:06:19.909Z,15.91
2023-02-12T22:08:46.627Z,15.89
2023-02-12T22:11:13.899Z,15.85
2023-02-12T22:13:40.693Z,15.87
2023-02-12T22:16:12.354Z,15.93
2023-02-12T22:18:39.637Z,15.87
2023-02-12T22:21:07.684Z,15.83
2023-02-12T22:23:35.129Z,15.86
2023-02-12T22:26:06.280Z,15.85
2023-02-12T22:28:33.384Z,15.88
2023-02-12T22:31:00.236Z,15.83
2023-02-12T22:33:26.935Z,15.80
2023-02-12T22:35:53.492Z,15.82
2023-02-12T22:38:20.051Z,15.84
2023-02-12T22:40:46.590Z,15.85
2023-02-12T22:43:13.129Z,15.81
2023-02-12T22:45:43.566Z,15.86
2023-02-12T22:48:10.164Z,15.82
2023-02-12T22:50:39.227Z,15.87
2023-02-12T22:53:06.040Z,15.83
2023-02-12T22:55:32.689Z,15.85
2023-02-12T22:57:59.553Z,15.83
2023-02-12T23:00:26.124Z,15.80
2023-02-12T23:02:52.708Z,15.81
2023-02-12T23:05:19.234Z,15.82
2023-02-12T23:07:45.794Z,15.80
2023-02-12T23:10:12.550Z,15.84
2023-02-12T23:12:39.117Z,15.85
2023-02-12T23:15:06.078Z,15.82
2023-02-12T23:17:32.941Z,15.85
2023-02-12T23:19:59.527Z,15.81
2023-02-12T23:22:26.354Z,15.78
2023-02-12T23:24:52.902Z,15.81
2023-02-12T23:27:19.467Z,15.81
2023-02-12T23:29:46.018Z,15.78
2023-02-12T23:32:12.552Z,15.79
2023-02-12T23:34:41.347Z,15.77
2023-02-12T23:37:08.131Z,15.78
2023-02-12T23:39:34.674Z,15.85
2023-02-12T23:42:02.896Z,15.82
2023-02-12T23:44:29.462Z,15.82
2023-02-12T23:46:56.177Z,15.78
2023-02-12T23:49:22.826Z,15.80
2023-02-12T23:51:49.484Z,15.78
2023-02-12T23:54:16.026Z,15.75
2023-02-12T23:56:42.633Z,15.78
2023-02-12T23:59:09.241Z,15.80
